Huvudsida
METAR-TAF:

METAR-TAF

Flygplatser :

El Alto International Airport

La Paz, Bolivia

latitud: 16-31S, longitud: 068-11W, höjd: 4058 m

Aktuellt väderrapport

Denna rapport gjordes för 22 minuter sedan, klockan 02:00 UTC
Vind 7 kt från ost
Temperatur 4°C
Fuktighet 75%
Tryck 1039 hPa
Sikt 10 km eller mer

METAR: SLLP 230200Z 08007KT 9999 NSC 04/00 Q1039

Tid: 22:22 (02:22 UTC)

Väderprognos

Denna rapport gjordes för 4 timmar och 22 minuter sedan, klockan 22:00 UTC
Prognos gäller från 23 kl. 00 UTC till 23 kl. 24 UTC
Vind 7 kt från ost/nordost
Sikt 10 km eller mer
Få moln på en höjd av 1500 ft
Blir
från 23 kl. 14 UTC till 23 kl. 18 UTC
Vind 12 kt från sydost

TAF: SLLP 222200Z 2300/2324 06007KT 9999 FEW015 TX18/2320Z TNM02/2310Z BECMG 2314/2318 14012KT

Aktuella väderrapporter och prognoser från 4000 flygplatser (METAR- och TAF-rapporter).

De tillgängliga stationerna syns som gula och röda prickar på kartan.

För musen över prickarna för att se namnen på stationerna.

Klicka sedan för att få väderrapporter och prognoser.

För att ändra kartan: Klicka på de gröna knapparna med ett svart kors på för att zooma in; den gröna knappen med ett streck på för att zooma ut; eller på de gröna pilarna för angränsande kartor.


METAR-TAF: